Franklin, Maryland
Current Conditions -  °F | °C
As of 4:26 PM on Wednesday 26 Nov 2014 (Local Time) from KBWI Reporting Station
Light Snow Light Snow  
Wind Chill: 29°   Ceiling: 3000
Heat Index: 36°   Visibility: 7mi
Dew Point: 34°   Wind: 9mph
Humidity: 93%   Direction: 320°NW
Pressure: 29.92"   Gusts: NA
Location:  39.2849°N, 76.6522°W
Report Text: KBWI 262126Z 32008KT 7SM -RASN FEW009 OVC030 02/01 A2992 RMK AO2 SNB25 P0002
Loading
Personal Weather Stations






























Interactive Weather Map New forecast layout! Learn more

10-Day Weather Forecast

Advertisements
Track Severe Weather on mobile